createdAt,value
2023-09-04T00:01:28.115Z,100.00
2023-09-04T00:03:55.713Z,100.00
2023-09-04T00:06:23.287Z,100.00
2023-09-04T00:08:50.837Z,100.00
2023-09-04T00:11:18.417Z,100.00
2023-09-04T00:13:45.946Z,100.00
2023-09-04T00:16:13.517Z,100.00
2023-09-04T00:18:41.773Z,100.00
2023-09-04T00:21:09.320Z,100.00
2023-09-04T00:23:36.915Z,100.00
2023-09-04T00:26:04.508Z,100.00
2023-09-04T00:28:32.183Z,100.00
2023-09-04T00:31:00.271Z,100.00
2023-09-04T00:33:27.785Z,100.00
2023-09-04T00:35:55.373Z,100.00
2023-09-04T00:38:23.336Z,100.00
2023-09-04T00:40:51.108Z,100.00
2023-09-04T00:43:18.699Z,100.00
2023-09-04T00:45:47.697Z,100.00
2023-09-04T00:48:15.911Z,100.00
2023-09-04T00:50:44.322Z,100.00
2023-09-04T00:53:12.476Z,100.00
2023-09-04T00:55:40.575Z,100.00
2023-09-04T00:58:08.171Z,100.00
2023-09-04T01:00:35.892Z,100.00
2023-09-04T01:03:04.605Z,100.00
2023-09-04T01:05:33.459Z,100.00
2023-09-04T01:08:03.148Z,100.00
2023-09-04T01:10:39.100Z,100.00
2023-09-04T01:13:15.200Z,100.00
2023-09-04T01:15:43.195Z,100.00
2023-09-04T01:18:11.779Z,100.00
2023-09-04T01:20:39.762Z,100.00
2023-09-04T01:23:07.752Z,100.00
2023-09-04T01:25:46.217Z,100.00
2023-09-04T01:28:58.282Z,100.00
2023-09-04T01:31:41.577Z,100.00
2023-09-04T01:34:12.176Z,100.00
2023-09-04T01:36:40.390Z,100.00
2023-09-04T01:39:08.627Z,100.00
2023-09-04T01:41:40.207Z,100.00
2023-09-04T01:44:08.355Z,100.00
2023-09-04T01:46:36.574Z,100.00
2023-09-04T01:49:04.334Z,100.00
2023-09-04T01:51:31.858Z,100.00
2023-09-04T01:53:59.464Z,100.00
2023-09-04T01:56:27.243Z,100.00
2023-09-04T01:58:54.807Z,100.00
2023-09-04T02:01:22.412Z,100.00
2023-09-04T02:03:57.883Z,100.00
2023-09-04T02:06:27.528Z,100.00
2023-09-04T02:08:57.660Z,100.00
2023-09-04T02:11:26.178Z,100.00
2023-09-04T02:13:54.434Z,100.00
2023-09-04T02:16:23.835Z,100.00
2023-09-04T02:18:52.339Z,100.00
2023-09-04T02:21:19.908Z,100.00
2023-09-04T02:23:48.729Z,100.00
2023-09-04T02:26:16.282Z,100.00
2023-09-04T02:28:43.945Z,100.00
2023-09-04T02:31:12.701Z,100.00
2023-09-04T02:33:40.403Z,100.00
2023-09-04T02:36:07.883Z,100.00
2023-09-04T02:38:35.401Z,100.00
2023-09-04T02:41:03.090Z,100.00
2023-09-04T02:43:30.604Z,100.00
2023-09-04T02:45:59.184Z,100.00
2023-09-04T02:48:27.290Z,100.00
2023-09-04T02:51:01.431Z,100.00
2023-09-04T02:53:29.623Z,100.00
2023-09-04T02:55:57.877Z,100.00
2023-09-04T02:58:25.811Z,100.00
2023-09-04T03:00:53.991Z,100.00
2023-09-04T03:03:21.744Z,100.00
2023-09-04T03:05:49.382Z,100.00
2023-09-04T03:08:18.349Z,100.00
2023-09-04T03:10:45.903Z,100.00
2023-09-04T03:13:13.504Z,100.00
2023-09-04T03:15:41.198Z,100.00
2023-09-04T03:18:10.652Z,100.00
2023-09-04T03:20:39.124Z,100.00
2023-09-04T03:23:06.703Z,100.00
2023-09-04T03:25:37.270Z,100.00
2023-09-04T03:28:05.668Z,100.00
2023-09-04T03:30:35.553Z,100.00
2023-09-04T03:33:05.911Z,100.00
2023-09-04T03:35:33.490Z,100.00
2023-09-04T03:38:01.278Z,100.00
2023-09-04T03:40:30.444Z,100.00
2023-09-04T03:42:59.107Z,100.00
2023-09-04T03:45:33.576Z,100.00
2023-09-04T03:48:01.301Z,100.00
2023-09-04T03:50:29.146Z,100.00
2023-09-04T03:52:56.749Z,100.00
2023-09-04T03:55:24.574Z,100.00
2023-09-04T03:57:52.982Z,100.00
2023-09-04T04:00:23.897Z,100.00
2023-09-04T04:02:52.896Z,100.00
2023-09-04T04:05:21.991Z,100.00
2023-09-04T04:07:49.875Z,100.00
2023-09-04T04:10:20.578Z,100.00
2023-09-04T04:12:52.255Z,100.00
2023-09-04T04:15:20.750Z,100.00
2023-09-04T04:17:48.716Z,100.00
2023-09-04T04:20:17.405Z,100.00
2023-09-04T04:22:44.873Z,100.00
2023-09-04T04:25:12.559Z,100.00
2023-09-04T04:27:40.264Z,100.00
2023-09-04T04:30:10.243Z,100.00
2023-09-04T04:32:39.007Z,100.00
2023-09-04T04:35:08.593Z,100.00
2023-09-04T04:37:37.386Z,100.00
2023-09-04T04:40:06.202Z,100.00
2023-09-04T04:42:35.531Z,100.00
2023-09-04T04:45:04.820Z,100.00
2023-09-04T04:47:32.571Z,100.00
2023-09-04T04:50:00.307Z,100.00
2023-09-04T04:52:28.029Z,100.00
2023-09-04T04:54:55.647Z,100.00
2023-09-04T04:57:23.163Z,100.00
2023-09-04T04:59:50.801Z,100.00
2023-09-04T05:02:18.647Z,99.46
2023-09-04T05:04:47.284Z,92.95
2023-09-04T05:07:17.465Z,91.35
2023-09-04T05:09:45.324Z,92.41
2023-09-04T05:12:12.844Z,89.64
2023-09-04T05:14:40.897Z,86.91
2023-09-04T05:17:08.575Z,84.90
2023-09-04T05:19:37.024Z,87.54
2023-09-04T05:22:05.226Z,86.54
2023-09-04T05:24:32.828Z,87.40
2023-09-04T05:27:00.316Z,86.97
2023-09-04T05:29:27.892Z,78.97
2023-09-04T05:31:55.461Z,76.41
2023-09-04T05:34:23.613Z,72.16
2023-09-04T05:36:51.266Z,75.22
2023-09-04T05:39:18.938Z,78.58
2023-09-04T05:41:46.931Z,79.03
2023-09-04T05:44:14.565Z,73.58
2023-09-04T05:46:42.116Z,75.40
2023-09-04T05:49:09.686Z,73.78
2023-09-04T05:51:37.113Z,74.67
2023-09-04T05:54:04.855Z,71.44
2023-09-04T05:56:32.299Z,66.37
2023-09-04T05:58:59.862Z,67.59
2023-09-04T06:01:28.811Z,66.76
2023-09-04T06:03:56.465Z,69.67
2023-09-04T06:06:25.947Z,69.19
2023-09-04T06:08:53.512Z,65.51
2023-09-04T06:11:21.563Z,66.02
2023-09-04T06:13:50.183Z,69.65
2023-09-04T06:16:20.567Z,67.61
2023-09-04T06:18:48.292Z,66.85
2023-09-04T06:21:15.787Z,65.74
2023-09-04T06:23:45.532Z,70.82
2023-09-04T06:26:14.188Z,69.63
2023-09-04T06:28:43.996Z,68.92
2023-09-04T06:31:11.761Z,65.32
2023-09-04T06:33:39.597Z,69.98
2023-09-04T06:36:07.266Z,69.26
2023-09-04T06:38:34.844Z,63.14
2023-09-04T06:41:02.413Z,63.57
2023-09-04T06:43:31.114Z,66.05
2023-09-04T06:45:59.908Z,62.59
2023-09-04T06:48:28.692Z,61.80
2023-09-04T06:50:56.718Z,66.67
2023-09-04T06:53:24.888Z,61.11
2023-09-04T06:55:53.343Z,64.44
2023-09-04T06:58:21.148Z,67.40
2023-09-04T07:00:50.119Z,69.11
2023-09-04T07:03:19.753Z,67.10
2023-09-04T07:05:47.352Z,66.62
2023-09-04T07:08:14.942Z,63.21
2023-09-04T07:10:43.966Z,62.81
2023-09-04T07:13:11.525Z,61.42
2023-09-04T07:15:39.105Z,61.70
2023-09-04T07:18:07.117Z,60.72
2023-09-04T07:20:35.156Z,61.63
2023-09-04T07:23:18.418Z,63.55
2023-09-04T07:25:47.991Z,59.00
2023-09-04T07:28:15.646Z,61.07
2023-09-04T07:30:43.185Z,61.14
2023-09-04T07:33:10.852Z,58.20
2023-09-04T07:35:38.485Z,59.09
2023-09-04T07:38:05.961Z,60.71
2023-09-04T07:40:35.289Z,64.48
2023-09-04T07:43:03.134Z,63.79
2023-09-04T07:45:30.767Z,58.89
2023-09-04T07:47:58.349Z,61.63
2023-09-04T07:50:26.015Z,61.23
2023-09-04T07:52:55.968Z,63.61
2023-09-04T07:55:23.521Z,66.87
2023-09-04T07:57:51.045Z,68.56
2023-09-04T08:00:23.084Z,73.42
2023-09-04T08:02:51.638Z,69.93
2023-09-04T08:05:19.172Z,71.26
2023-09-04T08:07:46.749Z,69.74
2023-09-04T08:10:14.775Z,67.80
2023-09-04T08:12:42.991Z,72.42
2023-09-04T08:15:11.823Z,72.39
2023-09-04T08:17:42.405Z,74.42
2023-09-04T08:20:10.632Z,65.99
2023-09-04T08:22:38.156Z,66.62
2023-09-04T08:25:06.235Z,67.32
2023-09-04T08:27:33.769Z,70.71
2023-09-04T08:30:01.511Z,68.98
2023-09-04T08:32:29.035Z,63.01
2023-09-04T08:34:56.717Z,64.47
2023-09-04T08:37:24.705Z,67.11
2023-09-04T08:39:52.231Z,65.02
2023-09-04T08:42:20.492Z,65.52
2023-09-04T08:44:50.355Z,66.59
2023-09-04T08:47:21.553Z,67.07
2023-09-04T08:49:49.576Z,67.50
2023-09-04T08:52:17.355Z,70.16
2023-09-04T08:54:46.153Z,74.35
2023-09-04T08:57:15.092Z,75.78
2023-09-04T08:59:42.805Z,78.18
2023-09-04T09:02:16.632Z,74.47
2023-09-04T09:04:44.245Z,71.92
2023-09-04T09:07:12.267Z,74.86
2023-09-04T09:09:50.937Z,78.92
2023-09-04T09:12:18.864Z,79.79
2023-09-04T09:14:46.475Z,78.41
2023-09-04T09:17:17.101Z,74.92
2023-09-04T09:19:45.141Z,75.58
2023-09-04T09:22:17.482Z,74.88
2023-09-04T09:24:56.406Z,74.39
2023-09-04T09:27:26.266Z,72.54
2023-09-04T09:29:58.565Z,70.26
2023-09-04T09:32:31.986Z,69.30
2023-09-04T09:35:01.595Z,68.63
2023-09-04T09:37:33.125Z,70.37
2023-09-04T09:40:00.697Z,71.96
2023-09-04T09:42:28.442Z,76.81
2023-09-04T09:44:56.082Z,78.58
2023-09-04T09:47:23.638Z,72.87
2023-09-04T09:49:51.176Z,72.27
2023-09-04T09:52:18.924Z,70.63
2023-09-04T09:54:48.520Z,70.27
2023-09-04T09:57:20.337Z,69.52
2023-09-04T09:59:52.217Z,74.78
2023-09-04T10:02:28.789Z,76.41
2023-09-04T10:04:58.270Z,76.19
2023-09-04T10:07:29.028Z,75.54
2023-09-04T10:10:04.691Z,71.14
2023-09-04T10:12:57.779Z,72.09
2023-09-04T10:15:26.739Z,75.21
2023-09-04T10:18:04.103Z,73.82
2023-09-04T10:20:33.949Z,73.28
2023-09-04T10:23:09.744Z,68.36
2023-09-04T10:26:03.289Z,74.33
2023-09-04T10:28:56.850Z,78.49
2023-09-04T10:31:25.742Z,68.50
2023-09-04T10:33:54.686Z,68.37
2023-09-04T10:36:23.081Z,71.45
2023-09-04T10:38:51.229Z,69.10
2023-09-04T10:41:19.095Z,63.62
2023-09-04T10:43:46.613Z,64.02
2023-09-04T10:46:15.440Z,67.57
2023-09-04T10:48:47.406Z,63.45
2023-09-04T10:51:39.299Z,65.41
2023-09-04T10:54:15.986Z,63.93
2023-09-04T10:57:02.858Z,63.49
2023-09-04T10:59:32.040Z,67.50
2023-09-04T11:01:59.630Z,71.11
2023-09-04T11:04:47.726Z,64.14
2023-09-04T11:07:21.285Z,71.56
2023-09-04T11:09:52.591Z,68.62
2023-09-04T11:12:21.703Z,64.51
2023-09-04T11:14:53.391Z,63.07
2023-09-04T11:17:31.564Z,60.60
2023-09-04T11:20:00.468Z,66.43
2023-09-04T11:22:28.215Z,66.21
2023-09-04T11:24:56.135Z,68.13
2023-09-04T11:27:25.912Z,63.20
2023-09-04T11:29:53.796Z,62.32
2023-09-04T11:32:21.776Z,64.98
2023-09-04T11:34:51.414Z,64.27
2023-09-04T11:37:19.113Z,66.57
2023-09-04T11:40:00.743Z,65.27
2023-09-04T11:42:31.231Z,68.13
2023-09-04T11:44:58.752Z,64.70
2023-09-04T11:47:26.879Z,65.27
2023-09-04T11:49:54.599Z,66.39
2023-09-04T11:52:27.600Z,67.45
2023-09-04T11:54:55.698Z,64.51
2023-09-04T11:57:23.973Z,63.40
2023-09-04T11:59:51.581Z,67.92
2023-09-04T12:02:19.513Z,67.30
2023-09-04T12:04:47.791Z,72.92
2023-09-04T12:07:20.290Z,70.21
2023-09-04T12:09:47.859Z,70.77
2023-09-04T12:12:18.480Z,64.14
2023-09-04T12:14:46.957Z,69.41
2023-09-04T12:17:14.795Z,71.15
2023-09-04T12:19:45.649Z,73.21
2023-09-04T12:22:14.997Z,72.59
2023-09-04T12:25:07.617Z,73.60
2023-09-04T12:27:36.388Z,72.03
2023-09-04T12:30:06.084Z,68.50
2023-09-04T12:32:35.388Z,67.19
2023-09-04T12:35:07.704Z,71.06
2023-09-04T12:37:37.054Z,70.22
2023-09-04T12:40:05.713Z,71.16
2023-09-04T12:42:33.405Z,70.71
2023-09-04T12:45:01.099Z,68.25
2023-09-04T12:47:28.700Z,67.50
2023-09-04T12:49:56.286Z,68.56
2023-09-04T12:52:24.189Z,72.01
2023-09-04T12:54:51.678Z,73.22
2023-09-04T12:57:19.555Z,66.91
2023-09-04T12:59:47.051Z,68.18
2023-09-04T13:02:15.643Z,66.39
2023-09-04T13:04:43.579Z,69.44
2023-09-04T13:07:11.252Z,67.50
2023-09-04T13:09:38.977Z,70.83
2023-09-04T13:12:07.206Z,70.71
2023-09-04T13:14:34.712Z,71.28
2023-09-04T13:17:02.473Z,73.53
2023-09-04T13:19:30.213Z,74.98
2023-09-04T13:21:57.884Z,75.34
2023-09-04T13:24:25.442Z,73.43
2023-09-04T13:26:53.051Z,72.49
2023-09-04T13:29:21.862Z,74.39
2023-09-04T13:31:49.501Z,72.08
2023-09-04T13:34:17.227Z,73.88
2023-09-04T13:36:45.144Z,77.54
2023-09-04T13:39:12.703Z,76.59
2023-09-04T13:41:40.254Z,76.07
2023-09-04T13:44:07.939Z,75.17
2023-09-04T13:46:35.662Z,74.58
2023-09-04T13:49:03.479Z,75.93
2023-09-04T13:51:31.212Z,73.50
2023-09-04T13:53:58.793Z,72.04
2023-09-04T13:56:26.312Z,69.07
2023-09-04T13:58:53.921Z,70.25
2023-09-04T14:01:21.598Z,73.79
2023-09-04T14:03:49.164Z,77.09
2023-09-04T14:06:16.820Z,74.99
2023-09-04T14:08:44.404Z,73.26
2023-09-04T14:11:12.244Z,75.57
2023-09-04T14:13:39.875Z,75.82
2023-09-04T14:16:07.549Z,72.75
2023-09-04T14:18:35.057Z,71.85
2023-09-04T14:21:02.729Z,73.82
2023-09-04T14:23:30.248Z,73.44
2023-09-04T14:25:57.808Z,68.76
2023-09-04T14:28:26.309Z,69.87
2023-09-04T14:30:53.957Z,71.80
2023-09-04T14:33:21.544Z,70.57
2023-09-04T14:35:58.080Z,72.27
2023-09-04T14:38:26.021Z,68.62
2023-09-04T14:40:55.674Z,70.16
2023-09-04T14:43:23.668Z,70.60
2023-09-04T14:46:07.868Z,71.10
2023-09-04T14:48:37.820Z,74.98
2023-09-04T14:51:05.831Z,71.57
2023-09-04T14:53:33.417Z,77.70
2023-09-04T14:56:01.240Z,74.13
2023-09-04T14:58:28.845Z,74.64
2023-09-04T15:00:57.074Z,78.08
2023-09-04T15:03:25.847Z,80.16
2023-09-04T15:06:00.306Z,78.49
2023-09-04T15:08:31.597Z,78.96
2023-09-04T15:10:59.584Z,75.55
2023-09-04T15:13:27.597Z,78.49
2023-09-04T15:15:55.533Z,76.73
2023-09-04T15:18:23.470Z,77.39
2023-09-04T15:20:51.407Z,78.77
2023-09-04T15:23:19.061Z,78.21
2023-09-04T15:25:46.590Z,79.08
2023-09-04T15:28:14.079Z,80.64
2023-09-04T15:30:41.769Z,77.01
2023-09-04T15:33:09.449Z,78.40
2023-09-04T15:35:37.513Z,76.77
2023-09-04T15:38:05.048Z,79.52
2023-09-04T15:40:35.801Z,79.89
2023-09-04T15:43:04.414Z,80.88
2023-09-04T15:45:31.993Z,80.76
2023-09-04T15:48:01.188Z,81.39
2023-09-04T15:50:28.993Z,78.32
2023-09-04T15:52:56.461Z,80.62
2023-09-04T15:55:24.011Z,81.61
2023-09-04T15:57:51.555Z,82.45
2023-09-04T16:00:19.268Z,83.11
2023-09-04T16:02:46.841Z,84.54
2023-09-04T16:05:14.936Z,82.64
2023-09-04T16:07:42.361Z,83.54
2023-09-04T16:10:10.228Z,85.83
2023-09-04T16:12:37.858Z,83.01
2023-09-04T16:15:06.415Z,84.63
2023-09-04T16:17:33.935Z,83.96
2023-09-04T16:20:02.313Z,86.74
2023-09-04T16:22:29.850Z,87.92
2023-09-04T16:24:58.808Z,87.79
2023-09-04T16:27:26.638Z,86.53
2023-09-04T16:29:54.917Z,86.98
2023-09-04T16:32:22.620Z,89.99
2023-09-04T16:34:50.304Z,92.24
2023-09-04T16:37:21.454Z,92.21
2023-09-04T16:39:49.337Z,93.91
2023-09-04T16:42:17.371Z,91.39
2023-09-04T16:44:45.843Z,91.17
2023-09-04T16:47:13.330Z,92.78
2023-09-04T16:49:40.934Z,96.12
2023-09-04T16:52:08.868Z,96.32
2023-09-04T16:54:36.884Z,97.06
2023-09-04T16:57:04.582Z,99.35
2023-09-04T16:59:32.172Z,96.61
2023-09-04T17:01:59.713Z,96.63
2023-09-04T17:04:27.375Z,97.21
2023-09-04T17:06:55.737Z,97.85
2023-09-04T17:09:25.405Z,97.86
2023-09-04T17:11:53.568Z,98.01
2023-09-04T17:14:21.301Z,98.82
2023-09-04T17:16:48.855Z,98.75
2023-09-04T17:19:16.483Z,100.00
2023-09-04T17:21:44.085Z,100.00
2023-09-04T17:24:11.603Z,100.00
2023-09-04T17:26:39.253Z,100.00
2023-09-04T17:29:07.001Z,100.00
2023-09-04T17:31:34.666Z,100.00
2023-09-04T17:34:03.276Z,100.00
2023-09-04T17:36:30.830Z,100.00
2023-09-04T17:38:58.343Z,100.00
2023-09-04T17:41:25.900Z,100.00
2023-09-04T17:43:53.433Z,100.00
2023-09-04T17:46:21.197Z,100.00
2023-09-04T17:48:48.722Z,100.00
2023-09-04T17:51:16.326Z,100.00
2023-09-04T17:53:43.946Z,100.00
2023-09-04T17:56:11.570Z,100.00
2023-09-04T17:58:39.098Z,100.00
2023-09-04T18:01:06.946Z,100.00
2023-09-04T18:03:35.013Z,100.00
2023-09-04T18:06:02.712Z,100.00
2023-09-04T18:08:30.706Z,100.00
2023-09-04T18:11:05.540Z,100.00
2023-09-04T18:13:34.045Z,100.00
2023-09-04T18:16:01.626Z,100.00
2023-09-04T18:18:29.162Z,100.00
2023-09-04T18:20:57.048Z,100.00
2023-09-04T18:23:24.532Z,100.00
2023-09-04T18:25:52.117Z,100.00
2023-09-04T18:28:21.207Z,100.00
2023-09-04T18:30:51.730Z,100.00
2023-09-04T18:33:19.298Z,100.00
2023-09-04T18:35:47.188Z,100.00
2023-09-04T18:38:14.923Z,100.00
2023-09-04T18:40:42.507Z,100.00
2023-09-04T18:43:10.403Z,100.00
2023-09-04T18:45:45.655Z,100.00
2023-09-04T18:48:13.497Z,100.00
2023-09-04T18:50:41.070Z,100.00
2023-09-04T18:53:12.435Z,100.00
2023-09-04T18:55:39.966Z,100.00
2023-09-04T18:58:07.513Z,100.00
2023-09-04T19:00:36.019Z,100.00
2023-09-04T19:03:04.485Z,100.00
2023-09-04T19:05:32.610Z,100.00
2023-09-04T19:08:00.121Z,100.00
2023-09-04T19:10:27.665Z,100.00
2023-09-04T19:12:55.239Z,100.00
2023-09-04T19:15:22.871Z,100.00
2023-09-04T19:17:50.395Z,100.00
2023-09-04T19:20:20.951Z,100.00
2023-09-04T19:22:48.480Z,100.00
2023-09-04T19:25:16.219Z,100.00
2023-09-04T19:27:43.819Z,100.00
2023-09-04T19:30:11.773Z,100.00
2023-09-04T19:32:39.732Z,100.00
2023-09-04T19:35:07.719Z,100.00
2023-09-04T19:37:35.313Z,100.00
2023-09-04T19:40:08.402Z,100.00
2023-09-04T19:42:36.242Z,100.00
2023-09-04T19:45:04.220Z,100.00
2023-09-04T19:47:31.881Z,100.00
2023-09-04T19:49:59.465Z,100.00
2023-09-04T19:52:27.115Z,100.00
2023-09-04T19:54:54.605Z,100.00
2023-09-04T19:57:22.577Z,100.00
2023-09-04T19:59:50.098Z,100.00
2023-09-04T20:02:17.783Z,100.00
2023-09-04T20:04:45.436Z,100.00
2023-09-04T20:07:13.224Z,100.00
2023-09-04T20:09:40.700Z,100.00
2023-09-04T20:12:08.306Z,100.00
2023-09-04T20:14:35.771Z,100.00
2023-09-04T20:17:04.156Z,100.00
2023-09-04T20:19:32.851Z,100.00
2023-09-04T20:22:00.443Z,100.00
2023-09-04T20:24:27.850Z,100.00
2023-09-04T20:26:55.395Z,100.00
2023-09-04T20:29:22.943Z,100.00
2023-09-04T20:31:50.491Z,100.00
2023-09-04T20:34:18.021Z,100.00
2023-09-04T20:36:45.921Z,100.00
2023-09-04T20:39:13.375Z,100.00
2023-09-04T20:41:41.039Z,100.00
2023-09-04T20:44:08.590Z,100.00
2023-09-04T20:46:37.422Z,100.00
2023-09-04T20:49:05.020Z,100.00
2023-09-04T20:51:32.673Z,100.00
2023-09-04T20:54:00.184Z,100.00
2023-09-04T20:56:27.800Z,100.00
2023-09-04T20:58:55.273Z,100.00
2023-09-04T21:01:22.859Z,100.00
2023-09-04T21:03:50.379Z,100.00
2023-09-04T21:06:18.081Z,100.00
2023-09-04T21:08:45.536Z,100.00
2023-09-04T21:11:13.113Z,100.00
2023-09-04T21:13:59.525Z,100.00
2023-09-04T21:16:45.809Z,100.00
2023-09-04T21:19:32.235Z,100.00
2023-09-04T21:22:18.581Z,100.00
2023-09-04T21:25:04.854Z,100.00
2023-09-04T21:27:51.236Z,100.00
2023-09-04T21:30:37.570Z,100.00
2023-09-04T21:33:24.412Z,100.00
2023-09-04T21:36:10.744Z,100.00
2023-09-04T21:38:57.197Z,100.00
2023-09-04T21:41:43.541Z,100.00
2023-09-04T21:44:29.956Z,100.00
2023-09-04T21:47:16.253Z,100.00
2023-09-04T21:50:02.617Z,100.00
2023-09-04T21:52:48.967Z,100.00
2023-09-04T21:55:35.302Z,100.00
2023-09-04T21:58:21.587Z,100.00
2023-09-04T22:01:07.996Z,100.00
2023-09-04T22:03:55.222Z,100.00
2023-09-04T22:06:43.213Z,100.00
2023-09-04T22:09:29.337Z,100.00
2023-09-04T22:12:15.656Z,100.00
2023-09-04T22:15:01.961Z,100.00
2023-09-04T22:17:48.490Z,100.00
2023-09-04T22:20:34.782Z,100.00
2023-09-04T22:23:21.106Z,100.00
2023-09-04T22:26:07.510Z,100.00
2023-09-04T22:28:53.714Z,100.00
2023-09-04T22:31:39.987Z,100.00
2023-09-04T22:34:26.327Z,100.00
2023-09-04T22:37:12.614Z,100.00
2023-09-04T22:39:59.022Z,100.00
2023-09-04T22:43:00.144Z,100.00
2023-09-04T22:45:46.484Z,100.00
2023-09-04T22:48:32.849Z,100.00
2023-09-04T22:51:19.092Z,100.00
2023-09-04T22:54:05.242Z,100.00
2023-09-04T22:56:51.621Z,100.00
2023-09-04T22:59:37.891Z,100.00
2023-09-04T23:02:24.337Z,100.00
2023-09-04T23:05:10.794Z,100.00
2023-09-04T23:07:57.185Z,100.00
2023-09-04T23:10:43.545Z,100.00
2023-09-04T23:13:29.837Z,100.00
2023-09-04T23:16:16.171Z,100.00
2023-09-04T23:19:02.585Z,100.00
2023-09-04T23:21:30.793Z,100.00
2023-09-04T23:23:59.828Z,100.00
2023-09-04T23:26:41.900Z,100.00
2023-09-04T23:29:13.341Z,100.00
2023-09-04T23:31:46.171Z,100.00
2023-09-04T23:34:15.366Z,100.00
2023-09-04T23:36:49.035Z,100.00
2023-09-04T23:39:18.410Z,100.00
2023-09-04T23:42:05.075Z,100.00
2023-09-04T23:44:51.403Z,100.00
2023-09-04T23:47:19.056Z,100.00
2023-09-04T23:49:46.800Z,100.00
2023-09-04T23:52:16.065Z,100.00
2023-09-04T23:54:43.765Z,100.00
2023-09-04T23:57:11.622Z,100.00
2023-09-04T23:59:39.839Z,100.00
